Time;durP1;ratioP1;P1;durP2;ratioP2;P2;SDS_P1;SDS_P2;PMS_P1;PMS_P2;Temp;Humidity;BMP_temperature;BMP_pressure;BME280_temperature;BME280_humidity;BME280_pressure;Samples;Min_cycle;Max_cycle;Signal;HPM_P1;HPM_P2
2023/04/23 00:02:21;;;;;;;5.55;3.63;;;;;;;26.46;40.66;95703.72;4944038;28;20083;-53
2023/04/23 00:04:51;;;;;;;5.97;3.42;;;;;;;26.48;41.55;95706.16;4943921;28;20090;-56
2023/04/23 00:07:21;;;;;;;5.82;3.40;;;;;;;26.48;41.28;95706.16;4945768;28;20089;-50
2023/04/23 00:09:52;;;;;;;7.93;3.77;;;;;;;26.52;41.08;95699.16;4946541;28;20074;-48
2023/04/23 00:12:21;;;;;;;5.53;3.60;;;;;;;26.51;41.13;95702.94;4949893;28;20067;-52
2023/04/23 00:14:51;;;;;;;6.00;3.50;;;;;;;26.55;40.87;95695.91;4942164;28;20086;-51
2023/04/23 00:17:20;;;;;;;4.65;3.78;;;;;;;26.52;41.07;95694.56;4944008;28;20086;-58
2023/04/23 00:19:50;;;;;;;6.20;4.00;;;;;;;26.57;40.94;95691.06;4944938;28;20082;-55
2023/04/23 00:22:19;;;;;;;7.17;3.50;;;;;;;26.63;40.64;95697.28;4946134;28;20070;-54
2023/04/23 00:24:47;;;;;;;8.18;3.47;;;;;;;26.63;40.20;95697.28;4943296;28;20512;-55
2023/04/23 00:27:16;;;;;;;6.13;3.67;;;;;;;26.65;39.89;95692.44;4943604;28;20083;-57
2023/04/23 00:29:45;;;;;;;5.63;3.55;;;;;;;26.73;40.10;95689.22;4939889;28;20094;-56
2023/04/23 00:32:15;;;;;;;5.28;3.28;;;;;;;26.74;39.82;95694.38;4940668;28;20078;-54
2023/04/23 00:34:43;;;;;;;5.50;3.57;;;;;;;26.72;39.84;95690.31;4950356;28;20091;-57
2023/04/23 00:37:11;;;;;;;5.18;3.30;;;;;;;26.67;39.71;95690.28;4945922;28;20098;-58
2023/04/23 00:39:39;;;;;;;5.47;3.33;;;;;;;26.69;39.98;95686.22;4943427;28;20086;-56
2023/04/23 00:42:11;;;;;;;5.05;3.65;;;;;;;26.66;40.32;95689.47;4944947;28;20087;-57
2023/04/23 00:44:40;;;;;;;7.00;3.78;;;;;;;26.57;40.62;95680.25;4943797;28;20079;-55
2023/04/23 00:47:10;;;;;;;6.47;3.25;;;;;;;26.61;40.13;95686.75;4944782;28;20086;-55
2023/04/23 00:49:42;;;;;;;6.68;3.40;;;;;;;26.58;40.79;95681.06;4944083;28;20079;-55
2023/04/23 00:52:10;;;;;;;8.20;3.70;;;;;;;26.51;41.26;95678.59;4944158;28;20078;-55
2023/04/23 00:54:38;;;;;;;4.88;3.17;;;;;;;26.49;41.21;95678.84;4950819;28;20082;-54
2023/04/23 00:57:07;;;;;;;4.75;3.30;;;;;;;26.49;40.93;95673.44;4948053;28;20082;-55
2023/04/23 00:59:36;;;;;;;5.20;3.70;;;;;;;26.50;41.10;95674.28;4950344;28;20083;-54
2023/04/23 01:02:04;;;;;;;7.50;3.55;;;;;;;26.50;40.40;95680.50;4952807;28;20074;-54
2023/04/23 01:04:33;;;;;;;6.05;3.10;;;;;;;26.49;39.77;95678.03;4945566;28;20095;-51
2023/04/23 01:07:03;;;;;;;6.32;3.60;;;;;;;26.54;39.98;95669.16;4953479;28;20078;-54
2023/04/23 01:09:32;;;;;;;5.43;3.50;;;;;;;26.56;39.26;95675.09;4948941;28;20510;-56
2023/04/23 01:12:02;;;;;;;7.35;3.60;;;;;;;26.37;39.99;95669.31;4953257;28;20266;-58
2023/04/23 01:14:30;;;;;;;7.10;3.10;;;;;;;26.47;41.43;95674.81;4959296;28;20079;-59
2023/04/23 01:16:59;;;;;;;4.35;3.33;;;;;;;26.48;40.75;95674.53;4954888;28;20089;-55
2023/04/23 01:19:28;;;;;;;6.45;3.22;;;;;;;26.49;40.97;95668.03;4954091;28;20807;-56
2023/04/23 01:21:59;;;;;;;7.85;3.20;;;;;;;26.52;40.75;95672.91;4953384;28;20195;-52
2023/04/23 01:24:29;;;;;;;9.02;3.17;;;;;;;26.46;41.24;95667.72;4956443;28;20107;-56
2023/04/23 01:26:58;;;;;;;4.00;3.30;;;;;;;26.49;41.55;95672.63;4958769;28;20608;-54
2023/04/23 01:29:26;;;;;;;6.00;3.55;;;;;;;26.36;41.58;95665.81;4950738;28;20528;-56
2023/04/23 01:31:55;;;;;;;5.45;3.35;;;;;;;26.37;41.78;95670.13;4954970;28;20078;-53
2023/04/23 01:34:23;;;;;;;6.63;3.75;;;;;;;26.32;42.66;95669.28;4948040;28;20079;-53
2023/04/23 01:36:52;;;;;;;5.55;3.88;;;;;;;26.14;43.19;95660.56;4949793;28;20079;-53
2023/04/23 01:39:20;;;;;;;9.00;4.32;;;;;;;26.11;43.18;95668.38;4959280;28;20175;-53
2023/04/23 01:41:50;;;;;;;5.72;4.13;;;;;;;26.24;44.03;95660.59;4957637;28;20117;-52
2023/04/23 01:44:19;;;;;;;8.05;3.83;;;;;;;26.23;43.89;95664.41;4959021;28;20091;-55
2023/04/23 01:46:47;;;;;;;7.35;4.18;;;;;;;25.93;44.84;95680.44;4951253;28;20087;-57
2023/04/23 01:49:15;;;;;;;7.68;4.13;;;;;;;26.21;44.46;95677.34;4947277;28;20097;-56
2023/04/23 01:51:44;;;;;;;7.10;4.00;;;;;;;26.26;44.59;95676.59;4949218;28;20093;-56
2023/04/23 01:54:12;;;;;;;7.35;3.92;;;;;;;26.22;45.47;95676.28;4952238;28;20079;-54
2023/04/23 01:56:41;;;;;;;5.38;4.05;;;;;;;25.94;46.66;95672.06;4955948;28;20557;-51
2023/04/23 01:59:10;;;;;;;6.35;4.30;;;;;;;25.73;47.66;95671.09;4951693;28;20090;-56
2023/04/23 02:01:43;;;;;;;6.93;4.53;;;;;;;25.64;48.39;95663.75;4955077;28;20635;-55
2023/04/23 02:04:12;;;;;;;7.20;4.28;;;;;;;25.99;46.11;95658.59;4941156;28;20062;-49
2023/04/23 02:06:42;;;;;;;8.73;4.40;;;;;;;25.88;46.84;95662.31;4951820;28;20085;-52
2023/04/23 02:09:10;;;;;;;8.40;4.47;;;;;;;26.03;46.83;95675.91;4956703;28;20486;-57
2023/04/23 02:11:39;;;;;;;6.32;4.43;;;;;;;25.97;46.08;95676.13;4944000;28;20471;-55
2023/04/23 02:14:08;;;;;;;6.72;4.28;;;;;;;25.88;47.17;95678.53;4954888;28;20070;-52
2023/04/23 02:16:38;;;;;;;5.75;4.20;;;;;;;25.92;47.95;95676.94;4959182;28;20569;-58
2023/04/23 02:19:06;;;;;;;12.00;4.28;;;;;;;25.33;51.08;95683.22;4940262;28;20070;-57
2023/04/23 02:21:34;;;;;;;7.15;4.00;;;;;;;25.49;50.58;95677.94;4955786;28;20489;-51
2023/04/23 02:24:04;;;;;;;6.18;4.05;;;;;;;25.58;51.11;95679.09;4956206;28;20079;-58
2023/04/23 02:26:32;;;;;;;9.18;4.50;;;;;;;25.61;50.12;95677.75;4960907;28;20097;-53
2023/04/23 02:29:00;;;;;;;8.32;4.50;;;;;;;25.74;49.97;95672.72;4950072;28;20082;-56
2023/04/23 02:31:29;;;;;;;6.00;3.97;;;;;;;25.81;49.21;95672.53;4951229;28;20494;-54
2023/04/23 02:33:58;;;;;;;6.53;3.92;;;;;;;25.83;48.80;95675.78;4955557;28;20700;-57
2023/04/23 02:36:29;;;;;;;6.22;4.07;;;;;;;25.54;50.10;95680.69;4958554;28;20534;-57
2023/04/23 02:38:58;;;;;;;6.88;4.18;;;;;;;25.71;49.04;95684.06;4947639;28;20075;-54
2023/04/23 02:41:26;;;;;;;5.78;3.63;;;;;;;25.62;50.76;95677.50;4949185;28;20522;-54
2023/04/23 02:43:54;;;;;;;6.25;4.28;;;;;;;25.69;51.00;95677.28;4954658;28;20090;-56
2023/04/23 02:46:23;;;;;;;6.78;4.32;;;;;;;25.69;50.03;95680.78;4951143;28;20083;-53
2023/04/23 02:48:51;;;;;;;5.72;4.00;;;;;;;25.70;50.40;95679.69;4950916;28;20079;-54
2023/04/23 02:51:21;;;;;;;6.13;4.38;;;;;;;25.75;49.95;95689.75;4945186;28;20086;-51
2023/04/23 02:53:49;;;;;;;6.40;4.40;;;;;;;25.20;51.01;95685.53;4954424;28;20151;-55
2023/04/23 02:56:18;;;;;;;6.20;3.90;;;;;;;25.45;51.20;95687.63;4951458;28;20078;-53
2023/04/23 02:58:46;;;;;;;6.70;4.03;;;;;;;25.24;52.34;95684.75;4949626;28;20079;-58
2023/04/23 03:01:15;;;;;;;9.10;4.05;;;;;;;25.45;52.37;95684.91;4944910;28;20122;-55
2023/04/23 03:03:43;;;;;;;5.63;3.97;;;;;;;25.31;52.12;95682.66;4946754;28;20094;-57
2023/04/23 03:06:12;;;;;;;7.45;3.92;;;;;;;25.34;52.00;95684.84;4946301;28;20090;-55
2023/04/23 03:08:42;;;;;;;10.85;4.38;;;;;;;25.34;51.78;95690.22;4940360;28;20546;-56
2023/04/23 03:11:10;;;;;;;8.57;4.43;;;;;;;25.30;52.58;95686.41;4946065;28;20094;-57
2023/04/23 03:13:38;;;;;;;5.82;4.10;;;;;;;25.33;51.05;95683.22;4953707;28;20472;-56
2023/04/23 03:16:07;;;;;;;7.25;4.40;;;;;;;25.24;52.05;95683.94;4959952;28;20097;-52
2023/04/23 03:18:35;;;;;;;6.97;4.10;;;;;;;25.33;52.04;95682.41;4945426;28;20098;-56
2023/04/23 03:21:04;;;;;;;5.25;4.20;;;;;;;25.17;52.17;95681.44;4950254;28;20125;-55
2023/04/23 03:23:32;;;;;;;5.55;4.35;;;;;;;25.28;51.80;95685.84;4953087;28;20078;-53
2023/04/23 03:26:02;;;;;;;10.27;4.35;;;;;;;25.31;51.54;95685.34;4953670;28;20086;-52
2023/04/23 03:28:30;;;;;;;6.35;4.40;;;;;;;24.76;53.23;95694.47;4949453;28;20087;-53
2023/04/23 03:30:59;;;;;;;7.13;4.38;;;;;;;24.57;53.95;95695.88;4951228;28;20097;-57
2023/04/23 03:33:27;;;;;;;6.15;4.47;;;;;;;24.99;52.93;95684.47;4945095;28;20090;-50
2023/04/23 03:35:55;;;;;;;5.25;4.03;;;;;;;24.91;53.81;95690.31;4953639;28;20086;-56
2023/04/23 03:38:23;;;;;;;6.43;4.25;;;;;;;24.89;55.66;95695.16;4952766;28;20086;-52
2023/04/23 03:40:52;;;;;;;6.95;4.20;;;;;;;25.12;54.95;95692.19;4951989;28;20498;-59
2023/04/23 03:43:21;;;;;;;4.72;3.78;;;;;;;24.80;56.59;95700.19;4952342;28;20090;-54
2023/04/23 03:45:49;;;;;;;9.82;4.35;;;;;;;25.11;53.86;95693.25;4954141;28;20085;-53
2023/04/23 03:48:18;;;;;;;8.13;4.50;;;;;;;25.09;53.14;95692.69;4957620;28;20106;-53
2023/04/23 03:50:46;;;;;;;7.18;4.13;;;;;;;25.15;52.49;95696.25;4953803;28;20093;-53
2023/04/23 03:53:16;;;;;;;5.95;4.45;;;;;;;24.61;54.75;95702.41;4957559;28;20084;-55
2023/04/23 03:55:44;;;;;;;6.38;4.57;;;;;;;24.90;53.99;95699.47;4951827;28;20082;-55
2023/04/23 03:58:13;;;;;;;8.57;4.78;;;;;;;24.32;56.88;95709.81;4953265;28;20588;-55
2023/04/23 04:00:42;;;;;;;8.05;4.32;;;;;;;24.90;54.81;95715.66;4948453;28;20089;-55
2023/04/23 04:03:11;;;;;;;7.30;4.80;;;;;;;24.85;54.87;95714.56;4949035;28;20090;-57
2023/04/23 04:05:39;;;;;;;8.07;4.78;;;;;;;24.14;58.60;95719.81;4954683;28;20114;-52
2023/04/23 04:08:08;;;;;;;7.15;4.95;;;;;;;24.74;57.05;95718.22;4951060;28;20094;-53
2023/04/23 04:10:37;;;;;;;10.07;5.05;;;;;;;23.96;61.46;95724.69;4941910;28;20047;-51
2023/04/23 04:13:06;;;;;;;7.97;4.53;;;;;;;24.01;61.28;95725.56;4945213;28;20078;-56
2023/04/23 04:15:34;;;;;;;7.78;5.03;;;;;;;23.89;61.31;95727.56;4939769;28;20094;-56
2023/04/23 04:18:04;;;;;;;6.78;4.80;;;;;;;23.46;64.54;95735.16;4948558;28;20091;-54
2023/04/23 04:20:32;;;;;;;7.03;4.70;;;;;;;23.24;69.02;95731.56;4949096;28;20093;-53
2023/04/23 04:23:00;;;;;;;6.88;4.90;;;;;;;23.67;66.01;95736.38;4945572;28;20767;-52
2023/04/23 04:25:29;;;;;;;6.82;4.53;;;;;;;22.78;73.79;95741.44;4955991;28;20082;-50
2023/04/23 04:27:57;;;;;;;7.55;4.57;;;;;;;22.00;84.30;95748.09;4953722;28;20093;-51
2023/04/23 04:30:26;;;;;;;5.30;3.85;;;;;;;22.43;80.39;95750.41;4950059;28;20082;-52
2023/04/23 04:32:54;;;;;;;7.03;3.58;;;;;;;21.97;89.77;95746.69;4951619;28;20094;-57
2023/04/23 04:35:24;;;;;;;5.82;4.03;;;;;;;22.10;89.71;95751.00;4955611;28;20088;-50
2023/04/23 04:37:53;;;;;;;5.93;4.40;;;;;;;22.18;88.04;95753.34;4949188;28;20729;-49
2023/04/23 04:40:25;;;;;;;5.55;4.00;;;;;;;22.38;85.99;95755.69;4949382;28;20071;-54
2023/04/23 04:42:53;;;;;;;9.85;3.95;;;;;;;22.38;85.24;95761.06;4955258;28;20090;-51
2023/04/23 04:45:22;;;;;;;6.68;4.00;;;;;;;22.43;88.78;95753.09;4953420;28;20079;-51
2023/04/23 04:47:51;;;;;;;5.78;3.53;;;;;;;22.21;91.32;95758.25;4956967;28;20058;-49
2023/04/23 04:50:19;;;;;;;6.93;3.67;;;;;;;22.23;91.13;95758.03;4953032;28;20129;-53
2023/04/23 04:52:49;;;;;;;5.85;4.28;;;;;;;22.03;95.52;95761.88;4952836;28;20078;-53
2023/04/23 04:55:17;;;;;;;7.25;4.65;;;;;;;22.46;93.15;95762.56;4954759;28;20126;-51
2023/04/23 04:57:45;;;;;;;7.18;4.05;;;;;;;22.59;91.47;95756.09;4955442;28;20078;-55
2023/04/23 05:00:22;;;;;;;7.78;4.00;;;;;;;22.27;92.35;95759.22;4953478;28;20081;-53
2023/04/23 05:02:51;;;;;;;6.63;3.85;;;;;;;22.67;86.29;95759.22;4950934;28;20083;-51
2023/04/23 05:05:20;;;;;;;7.15;4.38;;;;;;;23.18;81.68;95756.75;4955059;28;20546;-53
2023/04/23 05:07:49;;;;;;;9.32;4.30;;;;;;;23.18;81.06;95749.47;4945207;28;20095;-53
2023/04/23 05:10:18;;;;;;;5.65;4.10;;;;;;;22.98;83.42;95752.59;4959243;28;20614;-53
2023/04/23 05:12:46;;;;;;;7.63;3.78;;;;;;;23.54;76.67;95750.13;4944647;28;21978;-51
2023/04/23 05:15:15;;;;;;;5.53;3.90;;;;;;;23.10;78.75;95762.53;4953366;28;20069;-54
2023/04/23 05:17:43;;;;;;;6.25;4.25;;;;;;;23.45;78.51;95757.75;4950978;28;20082;-54
2023/04/23 05:20:12;;;;;;;6.25;4.22;;;;;;;23.32;76.64;95759.94;4953537;28;20078;-56
2023/04/23 05:22:41;;;;;;;5.60;4.00;;;;;;;23.00;84.54;95767.69;4951760;28;20115;-54
2023/04/23 05:25:11;;;;;;;5.47;3.50;;;;;;;22.55;90.79;95781.81;4956246;28;20178;-55
2023/04/23 05:27:40;;;;;;;9.23;3.92;;;;;;;22.71;88.91;95786.44;4953023;28;20086;-52
2023/04/23 05:30:11;;;;;;;4.72;3.28;;;;;;;22.64;88.15;95789.28;4951897;28;20086;-50
2023/04/23 05:32:39;;;;;;;5.00;3.35;;;;;;;22.44;93.44;95786.97;4952041;28;20483;-51
2023/04/23 05:35:08;;;;;;;5.88;3.80;;;;;;;22.93;87.02;95792.84;4946605;28;20082;-53
2023/04/23 05:37:36;;;;;;;6.00;3.75;;;;;;;22.46;96.73;95792.91;4951912;28;20082;-56
2023/04/23 05:40:06;;;;;;;6.97;3.60;;;;;;;22.72;90.65;95796.97;4949291;28;20105;-51
2023/04/23 05:42:37;;;;;;;6.43;3.88;;;;;;;22.91;87.92;95796.81;4955186;28;20195;-52
2023/04/23 05:45:06;;;;;;;5.75;3.45;;;;;;;22.10;97.51;95810.09;4955370;28;20089;-54
2023/04/23 05:47:36;;;;;;;5.40;3.05;;;;;;;22.31;96.76;95811.41;4955748;28;20093;-50
2023/04/23 05:50:06;;;;;;;7.13;3.45;;;;;;;21.83;100.00;95809.72;4947454;28;20093;-50
2023/04/23 05:52:36;;;;;;;7.50;3.30;;;;;;;22.08;100.00;95806.81;4954464;28;20090;-52
2023/04/23 05:55:05;;;;;;;4.60;2.78;;;;;;;21.85;100.00;95817.50;4956589;28;20079;-51
2023/04/23 05:57:34;;;;;;;5.63;2.72;;;;;;;21.34;100.00;95809.00;4953927;28;20094;-53
2023/04/23 06:00:08;;;;;;;6.32;4.18;;;;;;;21.69;100.00;95816.34;4962105;28;20585;-50
2023/04/23 06:02:36;;;;;;;6.07;3.75;;;;;;;21.40;100.00;95826.03;4944513;28;20089;-52
2023/04/23 06:05:05;;;;;;;6.50;3.65;;;;;;;21.45;100.00;95824.31;4945240;28;20520;-52
2023/04/23 06:07:34;;;;;;;6.60;3.90;;;;;;;21.94;100.00;95814.25;4945870;28;20094;-53
2023/04/23 06:10:03;;;;;;;5.90;3.85;;;;;;;22.04;100.00;95821.75;4943407;28;20074;-51
2023/04/23 06:12:32;;;;;;;7.65;4.05;;;;;;;22.38;100.00;95817.47;4950752;28;20086;-54
2023/04/23 06:15:00;;;;;;;5.93;4.15;;;;;;;22.44;100.00;95813.03;4946566;28;20086;-53
2023/04/23 06:17:29;;;;;;;5.50;2.28;;;;;;;22.22;100.00;95818.97;4950006;28;20086;-55
2023/04/23 06:19:58;;;;;;;6.37;4.30;;;;;;;22.37;100.00;95815.03;4953786;28;20623;-56
2023/04/23 06:22:26;;;;;;;6.00;3.75;;;;;;;22.35;100.00;95815.25;4949016;28;20094;-55
2023/04/23 06:24:54;;;;;;;6.35;3.63;;;;;;;22.66;100.00;95808.66;4954181;28;20812;-55
2023/04/23 06:27:23;;;;;;;5.47;3.47;;;;;;;22.32;100.00;95810.34;4951698;28;20067;-56
2023/04/23 06:29:51;;;;;;;5.82;4.10;;;;;;;22.75;100.00;95806.44;4947168;28;20091;-55
2023/04/23 06:32:20;;;;;;;5.13;3.72;;;;;;;22.30;100.00;95807.09;4940409;28;20071;-54
2023/04/23 06:34:50;;;;;;;6.63;3.67;;;;;;;22.01;100.00;95814.16;4944624;28;20055;-53
2023/04/23 06:37:29;;;;;;;6.75;3.70;;;;;;;22.33;100.00;95806.59;4941507;28;20515;-55
2023/04/23 06:39:58;;;;;;;5.30;3.73;;;;;;;21.99;100.00;95814.41;4938799;28;20109;-50
2023/04/23 06:42:27;;;;;;;7.43;4.10;;;;;;;21.81;100.00;95814.47;4945439;28;20087;-52
2023/04/23 06:44:55;;;;;;;6.70;3.72;;;;;;;22.16;100.00;95824.47;4944181;28;20090;-54
2023/04/23 06:47:23;;;;;;;5.38;3.30;;;;;;;21.91;100.00;95819.28;4954103;28;20093;-54
2023/04/23 06:49:53;;;;;;;6.57;4.20;;;;;;;22.41;100.00;95811.63;4952823;28;20095;-53
2023/04/23 06:52:24;;;;;;;5.85;3.78;;;;;;;23.14;100.00;95807.50;4948295;28;20523;-56
2023/04/23 06:54:52;;;;;;;6.57;4.50;;;;;;;23.08;99.91;95816.53;4946822;28;20089;-54
2023/04/23 06:57:20;;;;;;;5.35;3.70;;;;;;;22.90;100.00;95814.00;4943807;28;20118;-56
2023/04/23 06:59:49;;;;;;;7.53;4.20;;;;;;;23.26;96.49;95812.03;4954612;28;20078;-51
2023/04/23 07:02:17;;;;;;;6.18;4.35;;;;;;;22.52;100.00;95818.03;4951476;28;20082;-51
2023/04/23 07:04:46;;;;;;;8.05;4.60;;;;;;;23.13;99.52;95808.59;4955529;28;20082;-52
2023/04/23 07:07:16;;;;;;;7.05;4.65;;;;;;;23.49;95.23;95808.41;4945206;28;20089;-53
2023/04/23 07:09:44;;;;;;;8.00;4.73;;;;;;;23.95;86.23;95815.44;4947136;28;20093;-52
2023/04/23 07:12:13;;;;;;;8.15;4.50;;;;;;;23.75;88.66;95813.22;4950163;28;20081;-53
2023/04/23 07:14:41;;;;;;;6.97;4.72;;;;;;;24.07;87.64;95824.25;4949612;28;20087;-52
2023/04/23 07:17:10;;;;;;;7.88;4.75;;;;;;;24.80;75.43;95822.34;4948189;28;20110;-47
2023/04/23 07:19:38;;;;;;;7.90;4.80;;;;;;;24.95;73.17;95819.06;4960099;28;20097;-51
2023/04/23 07:22:06;;;;;;;8.45;4.97;;;;;;;24.95;70.20;95818.22;4950895;28;20079;-55
2023/04/23 07:24:36;;;;;;;7.88;5.05;;;;;;;24.64;73.32;95809.75;4948736;28;20089;-55
2023/04/23 07:27:06;;;;;;;9.80;5.20;;;;;;;25.17;69.50;95810.97;4950666;28;20091;-51
2023/04/23 07:29:34;;;;;;;9.35;4.78;;;;;;;24.84;72.50;95812.72;4953489;28;20517;-52
2023/04/23 07:32:03;;;;;;;5.30;4.28;;;;;;;25.06;70.08;95807.31;4941121;28;20087;-54
2023/04/23 07:34:31;;;;;;;7.70;4.95;;;;;;;25.48;65.90;95809.41;4938505;28;20506;-53
2023/04/23 07:37:01;;;;;;;8.65;4.65;;;;;;;25.51;65.51;95803.50;4937516;28;20054;-58
2023/04/23 07:39:29;;;;;;;8.77;4.78;;;;;;;26.17;60.75;95797.88;4944096;28;20565;-50
2023/04/23 07:42:00;;;;;;;7.80;4.97;;;;;;;25.98;59.61;95804.75;4941826;28;20082;-53
2023/04/23 07:44:29;;;;;;;6.20;4.90;;;;;;;26.24;58.96;95809.28;4942736;28;20130;-52
2023/04/23 07:46:58;;;;;;;6.43;4.53;;;;;;;26.27;59.60;95813.34;4941120;28;20084;-56
2023/04/23 07:49:26;;;;;;;5.55;4.07;;;;;;;25.29;65.55;95818.91;4956581;28;20090;-53
2023/04/23 07:51:54;;;;;;;5.95;3.97;;;;;;;25.92;62.49;95811.19;4947602;28;20094;-54
2023/04/23 07:54:22;;;;;;;7.63;4.00;;;;;;;25.29;67.75;95808.13;4947363;28;22010;-54
2023/04/23 07:56:52;;;;;;;5.20;3.92;;;;;;;25.80;63.93;95803.25;4939449;28;20071;-50
2023/04/23 07:59:22;;;;;;;8.98;5.00;;;;;;;26.38;58.65;95801.53;4954549;28;20534;-55
2023/04/23 08:01:51;;;;;;;5.27;3.73;;;;;;;25.80;63.46;95814.03;4950721;28;20117;-54
2023/04/23 08:04:19;;;;;;;5.45;3.42;;;;;;;25.77;59.55;95817.22;4959464;28;20551;-51
2023/04/23 08:06:48;;;;;;;6.20;4.10;;;;;;;25.94;59.59;95817.13;4952769;28;20082;-54
2023/04/23 08:09:16;;;;;;;4.57;3.50;;;;;;;26.04;59.27;95819.94;4945170;28;20086;-52
2023/04/23 08:11:45;;;;;;;6.95;4.10;;;;;;;25.79;60.38;95821.34;4946131;28;20484;-51
2023/04/23 08:14:13;;;;;;;6.78;3.88;;;;;;;25.88;61.64;95816.31;4938994;28;20098;-56
2023/04/23 08:16:43;;;;;;;5.72;3.40;;;;;;;25.86;58.90;95814.91;4939698;28;20106;-51
2023/04/23 08:19:11;;;;;;;5.90;3.42;;;;;;;26.08;58.01;95809.41;4939420;28;20079;-54
2023/04/23 08:21:40;;;;;;;8.13;3.88;;;;;;;25.91;59.39;95817.66;4952841;28;20055;-52
2023/04/23 08:24:08;;;;;;;7.13;3.90;;;;;;;26.09;58.95;95809.16;4956788;28;20085;-54
2023/04/23 08:26:36;;;;;;;5.75;3.47;;;;;;;25.79;60.26;95801.59;4953960;28;20089;-53
2023/04/23 08:29:05;;;;;;;5.50;3.50;;;;;;;25.98;58.34;95802.03;4947466;28;20090;-56
2023/04/23 08:31:36;;;;;;;3.85;2.85;;;;;;;25.29;59.82;95808.97;4947900;28;20522;-53
2023/04/23 08:34:05;;;;;;;3.60;2.88;;;;;;;24.48;68.60;95819.50;4956630;28;20117;-50
2023/04/23 08:36:34;;;;;;;5.70;3.30;;;;;;;25.50;61.51;95814.56;4954470;28;20483;-49
2023/04/23 08:39:03;;;;;;;5.72;3.50;;;;;;;25.32;64.98;95816.50;4945862;28;20082;-56
2023/04/23 08:41:35;;;;;;;5.43;4.03;;;;;;;25.92;60.81;95805.78;4958631;28;20083;-57
2023/04/23 08:44:11;;;;;;;6.63;3.90;;;;;;;26.23;57.66;95793.31;4959296;28;20082;-52
2023/04/23 08:46:43;;;;;;;7.38;3.90;;;;;;;26.10;56.89;95796.47;4958366;28;20171;-58
2023/04/23 08:49:15;;;;;;;7.57;3.70;;;;;;;25.45;61.85;95801.00;4956576;28;20545;-50
2023/04/23 08:51:49;;;;;;;7.07;3.25;;;;;;;25.81;60.21;95799.50;4952266;28;20090;-59
2023/04/23 08:54:22;;;;;;;4.57;3.38;;;;;;;26.58;53.97;95791.94;4952861;28;20087;-51
2023/04/23 08:56:51;;;;;;;5.40;3.35;;;;;;;26.20;56.77;95785.72;4948178;28;20102;-51
2023/04/23 08:59:21;;;;;;;6.53;3.70;;;;;;;27.03;54.91;95785.09;4951166;28;20565;-49
2023/04/23 09:01:50;;;;;;;;;;;;;;;27.15;52.76;95785.72;4952951;28;20082;-53
2023/04/23 09:04:19;;;;;;;4.82;3.08;;;;;;;27.93;48.04;95774.75;4952586;28;19985;-54
2023/04/23 09:06:48;;;;;;;5.30;3.65;;;;;;;27.69;48.35;95767.13;4953938;28;20091;-56
2023/04/23 09:09:16;;;;;;;5.97;3.80;;;;;;;27.21;52.30;95779.22;4950838;28;20078;-56
2023/04/23 09:11:45;;;;;;;4.68;3.60;;;;;;;25.96;55.00;95788.00;4956749;28;20090;-56
2023/04/23 09:14:14;;;;;;;3.75;2.95;;;;;;;27.35;50.95;95779.53;4955641;28;20090;-55
2023/04/23 09:16:43;;;;;;;6.43;4.00;;;;;;;27.87;48.34;95781.25;4949535;28;20472;-50
2023/04/23 09:19:11;;;;;;;4.85;3.80;;;;;;;27.02;50.14;95778.06;4950697;28;20124;-55
2023/04/23 09:21:42;;;;;;;7.47;5.20;;;;;;;27.80;49.21;95767.16;4946938;28;20066;-52
2023/04/23 09:24:11;;;;;;;4.47;3.20;;;;;;;27.59;48.94;95769.00;4946712;28;20089;-53
2023/04/23 09:26:45;;;;;;;6.03;3.20;;;;;;;27.23;48.20;95768.97;4944278;28;20082;-54
2023/04/23 09:29:16;;;;;;;6.00;3.60;;;;;;;27.97;47.06;95756.06;4941724;28;20086;-59
2023/04/23 09:31:46;;;;;;;5.10;3.08;;;;;;;28.23;46.72;95759.56;4945213;28;20101;-53
2023/04/23 09:34:15;;;;;;;4.72;2.90;;;;;;;28.96;44.66;95753.66;4944692;28;20086;-49
2023/04/23 09:36:45;;;;;;;5.80;3.55;;;;;;;28.79;44.65;95748.56;4945798;28;20093;-58
2023/04/23 09:39:15;;;;;;;5.03;3.22;;;;;;;29.14;43.67;95750.31;4949320;28;20087;-54
2023/04/23 09:41:45;;;;;;;4.82;2.88;;;;;;;30.08;40.85;95744.00;4950131;28;20082;-54
2023/04/23 09:44:17;;;;;;;4.10;3.03;;;;;;;29.60;41.35;95741.94;4952958;28;20109;-53
2023/04/23 09:46:46;;;;;;;4.50;3.20;;;;;;;28.02;43.69;95754.16;4926247;28;20636;-54
2023/04/23 09:49:15;;;;;;;7.95;4.72;;;;;;;29.39;41.82;95745.81;4948696;28;20083;-57
2023/04/23 09:51:46;;;;;;;5.38;4.07;;;;;;;29.62;41.94;95742.44;4952611;28;20082;-53
2023/04/23 09:54:17;;;;;;;5.10;3.53;;;;;;;30.87;39.74;95733.66;4948968;28;20074;-57
2023/04/23 09:56:49;;;;;;;3.95;3.20;;;;;;;28.04;44.32;95740.31;4949829;28;20091;-56
2023/04/23 09:59:22;;;;;;;3.88;3.40;;;;;;;28.98;44.59;95736.00;4951743;28;20083;-56
2023/04/23 10:02:11;;;;;;;4.45;3.30;;;;;;;29.05;43.68;95736.53;4951523;28;20090;-52
2023/04/23 10:04:40;;;;;;;4.40;3.45;;;;;;;30.08;41.99;95728.47;4947224;28;20534;-53
2023/04/23 10:07:12;;;;;;;5.55;4.03;;;;;;;31.36;39.72;95727.03;4952713;28;20550;-53
2023/04/23 10:09:48;;;;;;;5.13;3.58;;;;;;;29.02;42.19;95737.09;4945020;28;20508;-56
2023/04/23 10:12:17;;;;;;;4.85;3.45;;;;;;;30.20;40.25;95718.03;4950606;28;20112;-57
2023/04/23 10:15:06;;;;;;;4.00;2.67;;;;;;;29.87;39.32;95727.84;4953075;28;20078;-56
2023/04/23 10:17:35;;;;;;;3.97;2.70;;;;;;;29.49;39.52;95732.19;4942342;28;20501;-54
2023/04/23 10:20:05;;;;;;;5.20;3.20;;;;;;;30.95;38.35;95719.38;4946430;28;20083;-55
2023/04/23 10:22:36;;;;;;;3.70;2.75;;;;;;;30.76;37.07;95719.34;4948122;28;20075;-57
2023/04/23 10:25:08;;;;;;;4.80;2.88;;;;;;;29.52;38.50;95716.13;4948840;28;20074;-57
2023/04/23 10:27:39;;;;;;;3.65;2.90;;;;;;;29.44;40.01;95711.31;4945717;28;20122;-52
2023/04/23 10:30:21;;;;;;;4.43;4.03;;;;;;;31.43;36.60;95702.94;4947303;28;20689;-54
2023/04/23 10:32:50;;;;;;;4.30;3.20;;;;;;;30.97;37.08;95709.00;4947327;28;20086;-55
2023/04/23 10:35:18;;;;;;;4.32;3.17;;;;;;;31.09;36.13;95705.84;4949242;28;20090;-54
2023/04/23 10:37:48;;;;;;;5.32;3.75;;;;;;;32.02;34.62;95704.16;4947823;28;20489;-54
2023/04/23 10:40:22;;;;;;;4.00;3.13;;;;;;;31.30;36.36;95699.00;4945231;28;20079;-54
2023/04/23 10:42:50;;;;;;;5.80;4.20;;;;;;;31.32;36.24;95707.72;4952379;28;20086;-57
2023/04/23 10:45:20;;;;;;;6.22;4.70;;;;;;;31.35;36.89;95704.44;4945818;28;20087;-57
2023/04/23 10:47:55;;;;;;;5.65;3.78;;;;;;;30.92;37.96;95704.44;4946852;28;20091;-57
2023/04/23 10:50:26;;;;;;;4.35;3.50;;;;;;;29.04;38.78;95710.50;4948917;28;20106;-57
2023/04/23 10:52:56;;;;;;;8.27;4.20;;;;;;;30.06;37.66;95699.94;4952004;28;20071;-52
2023/04/23 10:55:27;;;;;;;5.15;3.90;;;;;;;31.68;35.76;95694.34;4945865;28;20083;-53
2023/04/23 10:57:59;;;;;;;6.20;3.55;;;;;;;30.71;37.26;95698.41;4949178;28;20087;-58
2023/04/23 11:00:42;;;;;;;4.05;3.25;;;;;;;30.62;36.97;95686.53;4948267;28;20085;-54
2023/04/23 11:03:31;;;;;;;25.05;14.63;;;;;;;31.16;36.39;95689.94;4947491;28;20550;-52
2023/04/23 11:06:04;;;;;;;5.35;3.83;;;;;;;30.59;36.78;95681.69;4947901;28;20093;-55
2023/04/23 11:08:35;;;;;;;4.40;3.63;;;;;;;30.72;36.05;95680.97;4949856;28;20531;-54
2023/04/23 11:11:07;;;;;;;9.93;5.88;;;;;;;30.64;35.94;95673.47;4950393;28;20090;-51
2023/04/23 11:13:35;;;;;;;5.63;3.92;;;;;;;31.04;36.23;95684.13;4948572;28;20105;-53
2023/04/23 11:16:14;;;;;;;5.45;4.28;;;;;;;30.93;36.11;95676.09;4948170;28;20082;-57
2023/04/23 11:19:01;;;;;;;5.13;4.43;;;;;;;31.54;35.83;95660.78;4948850;28;20106;-57
2023/04/23 11:21:57;;;;;;;5.00;3.63;;;;;;;29.94;37.60;95665.81;4948953;28;20087;-52
2023/04/23 11:24:28;;;;;;;5.15;3.85;;;;;;;30.55;37.62;95655.34;4923618;28;20093;-57
2023/04/23 11:26:56;;;;;;;4.63;3.58;;;;;;;32.04;35.41;95649.34;4947777;28;20079;-58
2023/04/23 11:29:26;;;;;;;5.57;3.80;;;;;;;31.14;35.61;95645.84;4946831;28;20094;-58
2023/04/23 11:31:55;;;;;;;4.70;3.65;;;;;;;31.95;34.58;95641.03;4946786;28;20082;-58
2023/04/23 11:34:27;;;;;;;5.93;4.30;;;;;;;32.61;34.54;95644.38;4944922;28;20071;-56
2023/04/23 11:36:57;;;;;;;5.95;4.03;;;;;;;32.24;34.90;95640.72;4952248;28;20083;-54
2023/04/23 11:39:27;;;;;;;5.47;3.83;;;;;;;32.20;34.39;95642.44;4945040;28;20087;-54
2023/04/23 11:41:55;;;;;;;3.78;3.38;;;;;;;32.76;33.41;95633.16;4947735;28;20090;-54
2023/04/23 11:44:24;;;;;;;4.78;4.28;;;;;;;32.61;32.89;95636.19;4947685;28;20578;-55